Time,TemperatureF,DewpointF,PressureIn,WindDirection,WindDirectionDegrees,WindSpeedMPH,WindSpeedGustMPH,Humidity,HourlyPrecipIn,Conditions,Clouds,dailyrainin,SolarRadiationWatts/m^2,SoftwareType,DateUTC
2013-03-30 00:00:00,35.3,27.5,30.16,NW,308,0.0,0.0,73,0.00,BKN,,0.00,0.0,WeatherDisplay:10.37,2013-03-30 04:00:00,
2013-03-30 00:01:00,35.3,27.5,30.16,NW,308,0.0,0.0,73,0.00,BKN,,0.00,0.0,WeatherDisplay:10.37,2013-03-30 04:01:00,
2013-03-30 00:06:00,35.3,27.8,30.16,NW,308,0.0,0.0,74,0.00,BKN,,0.00,0.0,WeatherDisplay:10.37,2013-03-30 04:06:00,
2013-03-30 00:11:00,35.2,28.1,30.16,NW,308,0.0,0.0,75,0.00,BKN,,0.00,0.0,WeatherDisplay:10.37,2013-03-30 04:11:00,
2013-03-30 00:16:00,35.0,28.2,30.16,NW,308,0.0,0.0,76,0.00,BKN,,0.00,0.0,WeatherDisplay:10.37,2013-03-30 04:16:00,
2013-03-30 00:21:00,34.9,28.1,30.16,NW,308,0.0,0.0,76,0.00,BKN,,0.00,0.0,WeatherDisplay:10.37,2013-03-30 04:21:00,
2013-03-30 00:26:00,34.4,27.9,30.16,NW,308,0.0,0.0,77,0.00,BKN,,0.00,0.0,WeatherDisplay:10.37,2013-03-30 04:26:00,
2013-03-30 00:31:00,34.1,27.6,30.16,NW,308,0.0,0.0,77,0.00,BKN,,0.00,0.0,WeatherDisplay:10.37,2013-03-30 04:31:00,
2013-03-30 00:36:00,33.8,27.4,30.16,NW,308,0.0,0.0,77,0.00,SCT,,0.00,0.0,WeatherDisplay:10.37,2013-03-30 04:36:00,
2013-03-30 00:41:00,32.8,26.4,30.16,NW,308,0.0,0.0,77,0.00,SCT,,0.00,0.0,WeatherDisplay:10.37,2013-03-30 04:41:00,
2013-03-30 00:46:00,32.5,26.4,30.17,NW,308,0.0,0.0,78,0.00,SCT,,0.00,0.0,WeatherDisplay:10.37,2013-03-30 04:46:00,
2013-03-30 00:51:00,32.2,26.4,30.16,NW,308,0.0,0.0,79,0.00,SCT,,0.00,0.0,WeatherDisplay:10.37,2013-03-30 04:51:00,
2013-03-30 00:56:00,32.4,26.6,30.16,NW,308,0.0,0.0,79,0.00,SCT,,0.00,0.0,WeatherDisplay:10.37,2013-03-30 04:56:00,
2013-03-30 01:01:00,32.2,26.4,30.17,NW,308,0.0,0.0,79,0.00,SCT,,0.00,0.0,WeatherDisplay:10.37,2013-03-30 05:01:00,
2013-03-30 01:06:00,31.9,26.4,30.16,NW,308,0.0,0.0,80,0.00,SCT,,0.00,0.0,WeatherDisplay:10.37,2013-03-30 05:06:00,
2013-03-30 01:11:00,31.9,26.4,30.16,NW,308,0.0,0.0,80,0.00,SCT,,0.00,0.0,WeatherDisplay:10.37,2013-03-30 05:11:00,
2013-03-30 01:16:00,32.1,26.6,30.16,NW,308,0.0,0.0,80,0.00,SCT,,0.00,0.0,WeatherDisplay:10.37,2013-03-30 05:16:00,
2013-03-30 01:21:00,31.8,26.6,30.16,NW,308,0.0,0.0,81,0.00,SCT,,0.00,0.0,WeatherDisplay:10.37,2013-03-30 05:21:00,
2013-03-30 01:26:00,31.5,26.3,30.16,NW,308,0.0,0.0,81,0.00,SCT,,0.00,0.0,WeatherDisplay:10.37,2013-03-30 05:26:00,
2013-03-30 01:31:00,31.3,26.1,30.16,NW,308,0.0,0.0,81,0.00,SCT,,0.00,0.0,WeatherDisplay:10.37,2013-03-30 05:31:00,
2013-03-30 01:36:00,31.0,25.9,30.17,NW,308,0.0,0.0,81,0.00,SCT,,0.00,0.0,WeatherDisplay:10.37,2013-03-30 05:36:00,
2013-03-30 01:41:00,30.7,25.6,30.17,NW,308,0.0,0.0,81,0.00,SCT,,0.00,0.0,WeatherDisplay:10.37,2013-03-30 05:41:00,
2013-03-30 01:46:00,30.7,25.9,30.17,NW,308,0.0,0.0,82,0.00,SCT,,0.00,0.0,WeatherDisplay:10.37,2013-03-30 05:46:00,
2013-03-30 01:51:00,30.4,25.6,30.17,NW,308,0.0,0.0,82,0.00,SCT,,0.00,0.0,WeatherDisplay:10.37,2013-03-30 05:51:00,
2013-03-30 01:56:00,30.3,25.8,30.16,NW,308,0.0,0.0,83,0.00,SCT,,0.00,0.0,WeatherDisplay:10.37,2013-03-30 05:56:00,
2013-03-30 02:01:00,30.4,25.9,30.16,NW,308,0.0,0.0,83,0.00,SCT,,0.00,0.0,WeatherDisplay:10.37,2013-03-30 06:01:00,
2013-03-30 02:06:00,30.4,25.9,30.16,NW,308,0.0,0.0,83,0.00,SCT,,0.00,0.0,WeatherDisplay:10.37,2013-03-30 06:06:00,
2013-03-30 02:11:00,30.4,26.1,30.16,NW,308,0.0,0.0,84,0.00,SCT,,0.00,0.0,WeatherDisplay:10.37,2013-03-30 06:11:00,
2013-03-30 02:16:00,30.1,25.6,30.16,NW,308,0.0,0.0,83,0.00,SCT,,0.00,0.0,WeatherDisplay:10.37,2013-03-30 06:16:00,
2013-03-30 02:21:00,30.0,25.8,30.16,NW,308,0.0,0.0,84,0.00,SCT,,0.00,0.0,WeatherDisplay:10.37,2013-03-30 06:21:00,
2013-03-30 02:26:00,29.8,25.6,30.16,NW,308,0.0,0.0,84,0.00,SCT,,0.00,0.0,WeatherDisplay:10.37,2013-03-30 06:26:00,
2013-03-30 02:31:00,30.0,25.8,30.16,NW,308,0.0,0.0,84,0.00,SCT,,0.00,0.0,WeatherDisplay:10.37,2013-03-30 06:31:00,
2013-03-30 02:36:00,29.7,25.5,30.16,NW,308,0.0,0.0,84,0.00,FEW,,0.00,0.0,WeatherDisplay:10.37,2013-03-30 06:36:00,
2013-03-30 02:41:00,29.5,25.5,30.16,NW,308,0.0,0.0,85,0.00,FEW,,0.00,0.0,WeatherDisplay:10.37,2013-03-30 06:41:00,
2013-03-30 02:46:00,29.8,25.8,30.16,NW,308,0.0,0.0,85,0.00,FEW,,0.00,0.0,WeatherDisplay:10.37,2013-03-30 06:46:00,
2013-03-30 02:51:00,30.0,26.0,30.15,NW,308,0.0,0.0,85,0.00,FEW,,0.00,0.0,WeatherDisplay:10.37,2013-03-30 06:51:00,
2013-03-30 02:56:00,30.0,26.0,30.15,NW,308,0.0,0.0,85,0.00,FEW,,0.00,0.0,WeatherDisplay:10.37,2013-03-30 06:56:00,
2013-03-30 03:02:00,29.7,25.7,30.15,NW,308,0.0,0.0,85,0.00,FEW,,0.00,0.0,WeatherDisplay:10.37,2013-03-30 07:02:00,
2013-03-30 03:07:00,29.5,25.8,30.15,NW,308,0.0,0.0,86,0.00,FEW,,0.00,0.0,WeatherDisplay:10.37,2013-03-30 07:07:00,
2013-03-30 03:12:00,29.4,25.4,30.16,NW,308,0.0,0.0,85,0.00,SCT,,0.00,0.0,WeatherDisplay:10.37,2013-03-30 07:12:00,
2013-03-30 03:17:00,29.3,25.6,30.16,NW,308,0.0,0.0,86,0.00,SCT,,0.00,0.0,WeatherDisplay:10.37,2013-03-30 07:17:00,
2013-03-30 03:22:00,29.1,25.4,30.16,NW,308,0.0,0.0,86,0.00,SCT,,0.00,0.0,WeatherDisplay:10.37,2013-03-30 07:22:00,
2013-03-30 03:27:00,29.0,25.3,30.16,NW,308,0.0,0.0,86,0.00,SCT,,0.00,0.0,WeatherDisplay:10.37,2013-03-30 07:27:00,
2013-03-30 03:32:00,28.7,25.0,30.16,NW,308,0.0,0.0,86,0.00,SCT,,0.00,0.0,WeatherDisplay:10.37,2013-03-30 07:32:00,
2013-03-30 03:37:00,28.5,24.8,30.15,NW,308,0.0,0.0,86,0.00,SCT,,0.00,0.0,WeatherDisplay:10.37,2013-03-30 07:37:00,
2013-03-30 03:42:00,28.4,24.7,30.15,NW,308,0.0,0.0,86,0.00,SCT,,0.00,0.0,WeatherDisplay:10.37,2013-03-30 07:42:00,
2013-03-30 03:47:00,28.1,24.5,30.15,NW,308,0.0,0.0,86,0.00,SCT,,0.00,0.0,WeatherDisplay:10.37,2013-03-30 07:47:00,
2013-03-30 03:52:00,27.9,24.3,30.15,NW,308,0.0,0.0,86,0.00,SCT,,0.00,0.0,WeatherDisplay:10.37,2013-03-30 07:52:00,
2013-03-30 03:57:00,27.8,24.2,30.16,NW,308,0.0,0.0,86,0.00,SCT,,0.00,0.0,WeatherDisplay:10.37,2013-03-30 07:57:00,
2013-03-30 04:02:00,27.8,24.2,30.15,NW,308,0.0,0.0,86,0.00,SCT,,0.00,0.0,WeatherDisplay:10.37,2013-03-30 08:02:00,
2013-03-30 04:07:00,27.5,23.9,30.15,NW,308,0.0,0.0,86,0.00,SCT,,0.00,0.0,WeatherDisplay:10.37,2013-03-30 08:07:00,
2013-03-30 04:12:00,27.3,23.9,30.15,NW,308,0.0,0.0,87,0.00,BKN,,0.00,0.0,WeatherDisplay:10.37,2013-03-30 08:12:00,
2013-03-30 04:17:00,27.6,24.2,30.15,NW,308,0.0,0.0,87,0.00,BKN,,0.00,0.0,WeatherDisplay:10.37,2013-03-30 08:17:00,
2013-03-30 04:22:00,27.5,24.1,30.15,NW,308,0.0,0.0,87,0.00,BKN,,0.00,0.0,WeatherDisplay:10.37,2013-03-30 08:22:00,
2013-03-30 04:27:00,27.0,23.6,30.15,NW,308,0.0,0.0,87,0.00,BKN,,0.00,0.0,WeatherDisplay:10.37,2013-03-30 08:27:00,
2013-03-30 04:32:00,26.9,23.5,30.15,NW,308,0.0,0.0,87,0.00,SCT,,0.00,0.0,WeatherDisplay:10.37,2013-03-30 08:32:00,
2013-03-30 04:37:00,26.9,23.5,30.16,NW,308,0.0,0.0,87,0.00,SCT,,0.00,0.0,WeatherDisplay:10.37,2013-03-30 08:37:00,
2013-03-30 04:42:00,27.3,24.2,30.16,NW,308,0.0,0.0,88,0.00,SCT,,0.00,0.0,WeatherDisplay:10.37,2013-03-30 08:42:00,
2013-03-30 04:47:00,27.0,23.9,30.16,NW,308,0.0,0.0,88,0.00,SCT,,0.00,0.0,WeatherDisplay:10.37,2013-03-30 08:47:00,
2013-03-30 04:52:00,26.9,23.8,30.16,NW,308,0.0,0.0,88,0.00,BKN,,0.00,0.0,WeatherDisplay:10.37,2013-03-30 08:52:00,
2013-03-30 04:57:00,26.6,23.5,30.16,NW,308,0.0,0.0,88,0.00,BKN,,0.00,0.0,WeatherDisplay:10.37,2013-03-30 08:57:00,
2013-03-30 05:02:00,26.6,23.5,30.16,NW,308,0.0,0.0,88,0.00,BKN,,0.00,0.0,WeatherDisplay:10.37,2013-03-30 09:02:00,
2013-03-30 05:07:00,26.4,23.3,30.16,NW,308,0.0,0.0,88,0.00,BKN,,0.00,0.0,WeatherDisplay:10.37,2013-03-30 09:07:00,
2013-03-30 05:12:00,26.3,23.2,30.16,NW,308,0.0,0.0,88,0.00,FEW,,0.00,0.0,WeatherDisplay:10.37,2013-03-30 09:12:00,
2013-03-30 05:17:00,26.1,23.0,30.16,NW,308,0.0,0.0,88,0.00,FEW,,0.00,0.0,WeatherDisplay:10.37,2013-03-30 09:17:00,
2013-03-30 05:22:00,26.3,23.5,30.16,NW,308,0.0,0.0,89,0.00,FEW,,0.00,0.0,WeatherDisplay:10.37,2013-03-30 09:22:00,
2013-03-30 05:27:00,26.3,23.2,30.17,NW,308,0.0,0.0,88,0.00,FEW,,0.00,0.0,WeatherDisplay:10.37,2013-03-30 09:27:00,
2013-03-30 05:32:00,26.0,22.9,30.17,NW,308,0.0,0.0,88,0.00,FEW,,0.00,0.0,WeatherDisplay:10.37,2013-03-30 09:32:00,
2013-03-30 05:34:00,25.8,22.7,30.17,NW,308,0.0,0.0,88,0.00,FEW,,0.00,0.0,WeatherDisplay:10.37,2013-03-30 09:34:00,
2013-03-30 05:39:00,25.8,23.0,30.17,NW,308,0.0,0.0,89,0.00,FEW,,0.00,0.0,WeatherDisplay:10.37,2013-03-30 09:39:00,
2013-03-30 05:44:00,26.0,23.2,30.17,NW,308,0.0,0.0,89,0.00,FEW,,0.00,0.0,WeatherDisplay:10.37,2013-03-30 09:44:00,
2013-03-30 05:49:00,26.1,23.3,30.17,NW,308,0.0,0.0,89,0.00,FEW,,0.00,0.0,WeatherDisplay:10.37,2013-03-30 09:49:00,
2013-03-30 05:54:00,26.0,23.2,30.16,NW,308,0.0,0.0,89,0.00,FEW,,0.00,0.0,WeatherDisplay:10.37,2013-03-30 09:54:00,
2013-03-30 05:59:00,25.7,22.9,30.17,NW,308,0.0,0.0,89,0.00,FEW,,0.00,0.0,WeatherDisplay:10.37,2013-03-30 09:59:00,
2013-03-30 06:04:00,25.8,23.0,30.17,NW,308,0.0,0.0,89,0.00,FEW,,0.00,0.0,WeatherDisplay:10.37,2013-03-30 10:04:00,
2013-03-30 06:09:00,25.8,23.0,30.17,NW,308,0.0,0.0,89,0.00,FEW,,0.00,0.0,WeatherDisplay:10.37,2013-03-30 10:09:00,
2013-03-30 06:14:00,25.8,23.0,30.17,NW,308,0.0,0.0,89,0.00,BKN,,0.00,0.0,WeatherDisplay:10.37,2013-03-30 10:14:00,
2013-03-30 06:19:00,26.1,23.3,30.17,NW,308,0.0,0.0,89,0.00,BKN,,0.00,0.0,WeatherDisplay:10.37,2013-03-30 10:19:00,
2013-03-30 06:24:00,26.1,23.3,30.17,NW,308,0.0,0.0,89,0.00,BKN,,0.00,0.0,WeatherDisplay:10.37,2013-03-30 10:24:00,
2013-03-30 06:29:00,25.8,23.0,30.17,NW,308,0.0,0.0,89,0.00,BKN,,0.00,0.0,WeatherDisplay:10.37,2013-03-30 10:29:00,
2013-03-30 06:34:00,25.8,23.0,30.17,NW,308,0.0,0.0,89,0.00,BKN,,0.00,0.0,WeatherDisplay:10.37,2013-03-30 10:34:00,
2013-03-30 06:39:00,25.7,22.9,30.17,NW,308,0.0,0.0,89,0.00,BKN,,0.00,0.0,WeatherDisplay:10.37,2013-03-30 10:39:00,
2013-03-30 06:44:00,25.6,22.8,30.18,NW,308,0.0,0.0,89,0.00,BKN,,0.00,0.0,WeatherDisplay:10.37,2013-03-30 10:44:00,
2013-03-30 06:49:00,25.4,22.6,30.18,NW,308,0.0,0.0,89,0.00,BKN,,0.00,0.0,WeatherDisplay:10.37,2013-03-30 10:49:00,
2013-03-30 06:54:00,25.4,22.6,30.18,NW,308,0.0,0.0,89,0.00,BKN,,0.00,0.0,WeatherDisplay:10.37,2013-03-30 10:54:00,
2013-03-30 06:59:00,25.3,22.5,30.18,NW,308,0.0,0.0,89,0.00,BKN,,0.00,0.0,WeatherDisplay:10.37,2013-03-30 10:59:00,
2013-03-30 07:04:00,25.3,22.5,30.18,NW,308,0.0,0.0,89,0.00,BKN,,0.00,5.0,WeatherDisplay:10.37,2013-03-30 11:04:00,
2013-03-30 07:09:00,25.3,22.5,30.19,NW,308,0.0,0.0,89,0.00,BKN,,0.00,11.0,WeatherDisplay:10.37,2013-03-30 11:09:00,
2013-03-30 07:14:00,25.1,22.3,30.19,NW,308,0.0,0.0,89,0.00,OVC,,0.00,14.0,WeatherDisplay:10.37,2013-03-30 11:14:00,
2013-03-30 07:19:00,25.0,22.2,30.19,NW,308,0.0,0.0,89,0.00,OVC,,0.00,16.0,WeatherDisplay:10.37,2013-03-30 11:19:00,
2013-03-30 07:24:00,24.8,22.0,30.19,NW,308,0.0,0.0,89,0.00,OVC,,0.00,21.0,WeatherDisplay:10.37,2013-03-30 11:24:00,
2013-03-30 07:29:00,24.7,21.9,30.19,NW,308,0.0,0.0,89,0.00,OVC,,0.00,25.0,WeatherDisplay:10.37,2013-03-30 11:29:00,
2013-03-30 07:34:00,25.1,22.6,30.19,NW,308,0.0,0.0,90,0.00,OVC,,0.00,30.0,WeatherDisplay:10.37,2013-03-30 11:34:00,
2013-03-30 07:39:00,25.1,22.3,30.20,NW,308,0.0,0.0,89,0.00,OVC,,0.00,35.0,WeatherDisplay:10.37,2013-03-30 11:39:00,
2013-03-30 07:44:00,25.4,22.9,30.19,NW,308,0.0,0.0,90,0.00,OVC,,0.00,47.0,WeatherDisplay:10.37,2013-03-30 11:44:00,
2013-03-30 07:49:00,25.8,23.3,30.20,NW,308,0.0,0.0,90,0.00,OVC,,0.00,63.0,WeatherDisplay:10.37,2013-03-30 11:49:00,
2013-03-30 07:54:00,26.3,23.8,30.20,NW,308,0.0,0.0,90,0.00,OVC,,0.00,86.0,WeatherDisplay:10.37,2013-03-30 11:54:00,
2013-03-30 07:59:00,26.7,24.2,30.20,NW,308,0.0,0.0,90,0.00,OVC,,0.00,116.0,WeatherDisplay:10.37,2013-03-30 11:59:00,
2013-03-30 08:04:00,27.6,25.3,30.21,NW,308,0.0,0.0,91,0.00,OVC,,0.00,135.0,WeatherDisplay:10.37,2013-03-30 12:04:00,
2013-03-30 08:09:00,28.4,26.1,30.21,NW,308,0.0,0.0,91,0.00,OVC,,0.00,144.0,WeatherDisplay:10.37,2013-03-30 12:09:00,
2013-03-30 08:14:00,28.8,26.5,30.21,NW,308,0.0,0.0,91,0.00,OVC,,0.00,151.0,WeatherDisplay:10.37,2013-03-30 12:14:00,
2013-03-30 08:19:00,29.5,27.2,30.21,NW,308,0.0,0.0,91,0.00,OVC,,0.00,188.0,WeatherDisplay:10.37,2013-03-30 12:19:00,
2013-03-30 08:24:00,30.9,28.6,30.21,NW,308,0.0,0.0,91,0.00,OVC,,0.00,130.0,WeatherDisplay:10.37,2013-03-30 12:24:00,
2013-03-30 08:29:00,31.8,29.5,30.21,NW,308,0.0,0.0,91,0.00,OVC,,0.00,221.0,WeatherDisplay:10.37,2013-03-30 12:29:00,
2013-03-30 08:34:00,32.7,30.4,30.21,NW,308,0.0,0.0,91,0.00,OVC,,0.00,246.0,WeatherDisplay:10.37,2013-03-30 12:34:00,
2013-03-30 08:39:00,33.7,31.1,30.21,NW,308,0.0,0.0,90,0.00,OVC,,0.00,269.0,WeatherDisplay:10.37,2013-03-30 12:39:00,
2013-03-30 08:44:00,34.3,31.4,30.21,NW,308,0.0,0.0,89,0.00,OVC,,0.00,287.0,WeatherDisplay:10.37,2013-03-30 12:44:00,
2013-03-30 08:49:00,34.6,31.7,30.21,NW,308,0.0,0.0,89,0.00,OVC,,0.00,308.0,WeatherDisplay:10.37,2013-03-30 12:49:00,
2013-03-30 08:54:00,35.6,32.1,30.21,NW,308,0.0,0.0,87,0.00,OVC,,0.00,113.0,WeatherDisplay:10.37,2013-03-30 12:54:00,
2013-03-30 08:59:00,36.6,32.5,30.21,NW,308,0.0,0.0,85,0.00,OVC,,0.00,179.0,WeatherDisplay:10.37,2013-03-30 12:59:00,
2013-03-30 09:04:00,37.6,32.9,30.21,NW,308,0.0,0.0,83,0.00,OVC,,0.00,287.0,WeatherDisplay:10.37,2013-03-30 13:04:00,
2013-03-30 09:09:00,38.5,32.9,30.21,NW,308,0.0,0.0,80,0.00,OVC,,0.00,158.0,WeatherDisplay:10.37,2013-03-30 13:09:00,
2013-03-30 09:14:00,38.9,32.3,30.22,NW,308,0.0,0.0,77,0.00,OVC,,0.00,156.0,WeatherDisplay:10.37,2013-03-30 13:14:00,
2013-03-30 09:19:00,39.6,32.0,30.21,NW,308,0.0,0.0,74,0.00,OVC,,0.00,436.0,WeatherDisplay:10.37,2013-03-30 13:19:00,
2013-03-30 09:24:00,40.2,31.2,30.22,NW,308,0.0,0.0,70,0.00,OVC,,0.00,292.0,WeatherDisplay:10.37,2013-03-30 13:24:00,
2013-03-30 09:29:00,40.6,30.9,30.22,NW,308,0.0,0.0,68,0.00,OVC,,0.00,193.0,WeatherDisplay:10.37,2013-03-30 13:29:00,
2013-03-30 09:34:00,40.8,30.3,30.22,WNW,300,4.3,6.0,66,0.00,BKN,,0.00,478.0,WeatherDisplay:10.37,2013-03-30 13:34:00,
2013-03-30 09:39:00,41.1,30.2,30.22,WNW,288,3.8,6.0,65,0.00,BKN,,0.00,473.0,WeatherDisplay:10.37,2013-03-30 13:39:00,
2013-03-30 09:44:00,41.6,30.7,30.22,WNW,288,0.0,1.5,65,0.00,BKN,,0.00,527.0,WeatherDisplay:10.37,2013-03-30 13:44:00,
2013-03-30 09:49:00,42.1,31.2,30.22,WNW,286,3.3,4.6,65,0.00,BKN,,0.00,534.0,WeatherDisplay:10.37,2013-03-30 13:49:00,
2013-03-30 09:54:00,42.9,31.6,30.22,WNW,286,0.9,3.5,64,0.00,BKN,,0.00,548.0,WeatherDisplay:10.37,2013-03-30 13:54:00,
2013-03-30 09:59:00,43.6,31.0,30.21,WNW,285,0.1,1.2,61,0.00,BKN,,0.00,520.0,WeatherDisplay:10.37,2013-03-30 13:59:00,
2013-03-30 10:04:00,44.2,31.6,30.22,WNW,290,5.2,6.0,61,0.00,BKN,,0.00,555.0,WeatherDisplay:10.37,2013-03-30 14:04:00,
2013-03-30 10:09:00,44.3,30.4,30.22,WNW,290,1.7,3.5,58,0.00,BKN,,0.00,568.0,WeatherDisplay:10.37,2013-03-30 14:09:00,
2013-03-30 10:14:00,44.8,30.9,30.21,WNW,290,0.0,0.0,58,0.00,SCT,,0.00,577.0,WeatherDisplay:10.37,2013-03-30 14:14:00,
2013-03-30 10:19:00,46.0,32.5,30.21,WNW,288,4.0,6.0,59,0.00,SCT,,0.00,596.0,WeatherDisplay:10.37,2013-03-30 14:19:00,
2013-03-30 10:24:00,46.1,32.6,30.21,WNW,288,2.5,3.5,59,0.00,SCT,,0.00,599.0,WeatherDisplay:10.37,2013-03-30 14:24:00,
2013-03-30 10:29:00,46.4,32.4,30.21,WNW,286,0.0,3.5,58,0.00,SCT,,0.00,613.0,WeatherDisplay:10.37,2013-03-30 14:29:00,
2013-03-30 10:34:00,46.5,31.2,30.21,WNW,285,0.2,3.5,55,0.00,SCT,,0.00,628.0,WeatherDisplay:10.37,2013-03-30 14:34:00,
2013-03-30 10:39:00,46.8,31.5,30.21,WNW,285,1.5,4.5,55,0.00,SCT,,0.00,642.0,WeatherDisplay:10.37,2013-03-30 14:39:00,
2013-03-30 10:44:00,46.8,29.6,30.20,WNW,283,3.9,5.8,51,0.00,SCT,,0.00,657.0,WeatherDisplay:10.37,2013-03-30 14:44:00,
2013-03-30 10:49:00,47.3,29.6,30.20,WNW,300,4.1,8.1,50,0.00,SCT,,0.00,664.0,WeatherDisplay:10.37,2013-03-30 14:49:00,
2013-03-30 10:54:00,47.6,29.4,30.20,NW,313,1.4,3.5,49,0.00,SCT,,0.00,677.0,WeatherDisplay:10.37,2013-03-30 14:54:00,
2013-03-30 10:59:00,48.0,29.2,30.20,NW,311,0.3,3.0,48,0.00,SCT,,0.00,693.0,WeatherDisplay:10.37,2013-03-30 14:59:00,
2013-03-30 11:04:00,48.5,30.7,30.20,NW,309,4.0,4.6,50,0.00,SCT,,0.00,701.0,WeatherDisplay:10.37,2013-03-30 15:04:00,
2013-03-30 11:09:00,48.9,29.5,30.20,NW,314,4.5,8.1,47,0.00,SCT,,0.00,710.0,WeatherDisplay:10.37,2013-03-30 15:09:00,
2013-03-30 11:14:00,49.2,29.8,30.20,WNW,299,3.0,6.0,47,0.00,SCT,,0.00,724.0,WeatherDisplay:10.37,2013-03-30 15:14:00,
2013-03-30 11:19:00,49.5,29.6,30.19,NW,325,5.2,6.0,46,0.00,SCT,,0.00,733.0,WeatherDisplay:10.37,2013-03-30 15:19:00,
2013-03-30 11:24:00,49.6,28.6,30.19,WNW,300,0.2,4.6,44,0.00,FEW,,0.00,744.0,WeatherDisplay:10.37,2013-03-30 15:24:00,
2013-03-30 11:29:00,50.4,30.4,30.19,WNW,299,0.2,1.5,46,0.00,FEW,,0.00,756.0,WeatherDisplay:10.37,2013-03-30 15:29:00,
2013-03-30 11:34:00,51.1,31.6,30.19,NW,326,8.1,10.5,47,0.00,FEW,,0.00,768.0,WeatherDisplay:10.37,2013-03-30 15:34:00,
2013-03-30 11:39:00,51.0,29.3,30.18,NW,309,3.9,6.0,43,0.00,FEW,,0.00,772.0,WeatherDisplay:10.37,2013-03-30 15:39:00,
2013-03-30 11:44:00,50.8,29.1,30.18,WNW,302,0.1,3.5,43,0.00,FEW,,0.00,773.0,WeatherDisplay:10.37,2013-03-30 15:44:00,
2013-03-30 11:49:00,51.7,30.5,30.18,NW,320,2.6,9.2,44,0.00,FEW,,0.00,784.0,WeatherDisplay:10.37,2013-03-30 15:49:00,
2013-03-30 11:54:00,52.0,30.2,30.18,NW,312,0.2,1.2,43,0.00,FEW,,0.00,798.0,WeatherDisplay:10.37,2013-03-30 15:54:00,
2013-03-30 11:59:00,51.7,27.5,30.18,NNE,19,3.5,8.1,39,0.00,FEW,,0.00,805.0,WeatherDisplay:10.37,2013-03-30 15:59:00,
2013-03-30 12:05:00,51.1,28.2,30.18,NNE,30,0.6,1.2,41,0.00,FEW,,0.00,819.0,WeatherDisplay:10.37,2013-03-30 16:05:00,
2013-03-30 12:10:00,51.6,28.6,30.18,West,271,3.4,4.6,41,0.00,FEW,,0.00,842.0,WeatherDisplay:10.37,2013-03-30 16:10:00,
2013-03-30 12:15:00,51.9,29.5,30.17,NNW,329,7.9,9.0,42,0.00,FEW,,0.00,838.0,WeatherDisplay:10.37,2013-03-30 16:15:00,
2013-03-30 12:20:00,52.2,29.2,30.17,WNW,300,2.0,6.0,41,0.00,FEW,,0.00,837.0,WeatherDisplay:10.37,2013-03-30 16:20:00,
2013-03-30 12:25:00,52.3,26.8,30.17,NW,306,4.5,5.8,37,0.00,FEW,,0.00,846.0,WeatherDisplay:10.37,2013-03-30 16:25:00,
2013-03-30 12:30:00,52.6,27.7,30.17,NE,41,0.9,6.0,38,0.00,FEW,,0.00,838.0,WeatherDisplay:10.37,2013-03-30 16:30:00,
2013-03-30 12:35:00,52.6,27.0,30.17,NNW,329,6.0,8.1,37,0.00,SCT,,0.00,844.0,WeatherDisplay:10.37,2013-03-30 16:35:00,
2013-03-30 12:40:00,52.9,28.6,30.17,NW,322,2.2,3.0,39,0.00,SCT,,0.00,865.0,WeatherDisplay:10.37,2013-03-30 16:40:00,
2013-03-30 12:45:00,53.5,29.1,30.16,NW,323,0.5,1.5,39,0.00,SCT,,0.00,863.0,WeatherDisplay:10.37,2013-03-30 16:45:00,
2013-03-30 12:50:00,53.5,27.2,30.16,North,349,12.4,15.0,36,0.00,SCT,,0.00,875.0,WeatherDisplay:10.37,2013-03-30 16:50:00,
2013-03-30 12:55:00,52.9,25.3,30.16,NNW,344,0.4,4.5,34,0.00,SCT,,0.00,875.0,WeatherDisplay:10.37,2013-03-30 16:55:00,
2013-03-30 13:00:00,53.1,28.1,30.16,NW,321,6.2,6.2,38,0.00,SCT,,0.00,860.0,WeatherDisplay:10.37,2013-03-30 17:00:00,
2013-03-30 13:05:00,53.5,28.5,30.16,NW,304,11.0,12.0,38,0.00,SCT,,0.00,854.0,WeatherDisplay:10.37,2013-03-30 17:05:00,
2013-03-30 13:10:00,53.5,25.8,30.15,SW,232,5.8,9.2,34,0.00,SCT,,0.00,849.0,WeatherDisplay:10.37,2013-03-30 17:10:00,
2013-03-30 13:15:00,53.5,25.8,30.15,WSW,240,11.2,11.2,34,0.00,SCT,,0.00,847.0,WeatherDisplay:10.37,2013-03-30 17:15:00,
2013-03-30 13:20:00,53.5,24.3,30.15,SSW,211,6.1,8.1,32,0.00,SCT,,0.00,849.0,WeatherDisplay:10.37,2013-03-30 17:20:00,
2013-03-30 13:25:00,53.8,28.8,30.14,SW,224,4.0,9.0,38,0.00,SCT,,0.00,833.0,WeatherDisplay:10.37,2013-03-30 17:25:00,
2013-03-30 13:30:00,53.8,26.8,30.14,WNW,298,4.9,6.0,35,0.00,SCT,,0.00,886.0,WeatherDisplay:10.37,2013-03-30 17:30:00,
2013-03-30 13:35:00,54.4,28.0,30.14,WNW,283,4.0,13.8,36,0.00,SCT,,0.00,849.0,WeatherDisplay:10.37,2013-03-30 17:35:00,
2013-03-30 13:40:00,54.8,22.3,30.14,WNW,302,0.9,4.6,28,0.00,SCT,,0.00,838.0,WeatherDisplay:10.37,2013-03-30 17:40:00,
2013-03-30 13:45:00,55.0,23.3,30.14,WNW,286,11.7,15.0,29,0.00,SCT,,0.00,840.0,WeatherDisplay:10.37,2013-03-30 17:45:00,
2013-03-30 13:50:00,54.8,25.5,30.13,NNW,339,4.9,8.1,32,0.00,SCT,,0.00,837.0,WeatherDisplay:10.37,2013-03-30 17:50:00,
2013-03-30 13:55:00,55.1,26.5,30.13,NW,304,7.3,9.2,33,0.00,SCT,,0.00,828.0,WeatherDisplay:10.37,2013-03-30 17:55:00,
2013-03-30 14:00:00,55.3,25.9,30.12,NW,316,0.5,1.5,32,0.00,SCT,,0.00,833.0,WeatherDisplay:10.37,2013-03-30 18:00:00,
2013-03-30 14:05:00,55.3,24.4,30.12,North,10,1.2,4.6,30,0.00,SCT,,0.00,828.0,WeatherDisplay:10.37,2013-03-30 18:05:00,
2013-03-30 14:10:00,55.4,25.2,30.12,WNW,302,10.4,10.5,31,0.00,SCT,,0.00,821.0,WeatherDisplay:10.37,2013-03-30 18:10:00,
2013-03-30 14:15:00,55.7,23.9,30.12,NW,323,1.6,10.4,29,0.00,FEW,,0.00,817.0,WeatherDisplay:10.37,2013-03-30 18:15:00,
2013-03-30 14:20:00,55.7,23.1,30.12,West,269,4.6,8.1,28,0.00,FEW,,0.00,810.0,WeatherDisplay:10.37,2013-03-30 18:20:00,
2013-03-30 14:25:00,55.4,22.8,30.11,WSW,245,2.0,3.5,28,0.00,FEW,,0.00,803.0,WeatherDisplay:10.37,2013-03-30 18:25:00,
2013-03-30 14:30:00,55.7,26.3,30.11,South,175,0.5,4.5,32,0.00,FEW,,0.00,796.0,WeatherDisplay:10.37,2013-03-30 18:30:00,
2013-03-30 14:35:00,56.0,27.3,30.11,SE,136,1.1,3.0,33,0.00,FEW,,0.00,793.0,WeatherDisplay:10.37,2013-03-30 18:35:00,
2013-03-30 14:40:00,56.9,29.5,30.10,NNW,338,16.8,16.8,35,0.00,FEW,,0.00,788.0,WeatherDisplay:10.37,2013-03-30 18:40:00,
2013-03-30 14:45:00,56.9,23.2,30.11,NW,306,9.2,13.5,27,0.00,FEW,,0.00,779.0,WeatherDisplay:10.37,2013-03-30 18:45:00,
2013-03-30 14:50:00,56.7,23.0,30.10,NW,308,9.4,9.4,27,0.00,FEW,,0.00,773.0,WeatherDisplay:10.37,2013-03-30 18:50:00,
2013-03-30 14:55:00,56.7,23.0,30.10,NW,325,0.5,1.5,27,0.00,FEW,,0.00,763.0,WeatherDisplay:10.37,2013-03-30 18:55:00,
2013-03-30 15:00:00,56.6,22.1,30.11,ESE,116,4.3,5.8,26,0.00,FEW,,0.00,756.0,WeatherDisplay:10.37,2013-03-30 19:00:00,
2013-03-30 15:05:00,56.5,21.1,30.10,ESE,102,2.3,8.1,25,0.00,FEW,,0.00,745.0,WeatherDisplay:10.37,2013-03-30 19:05:00,
2013-03-30 15:10:00,56.7,23.9,30.10,ESE,105,2.2,4.6,28,0.00,FEW,,0.00,737.0,WeatherDisplay:10.37,2013-03-30 19:10:00,
2013-03-30 15:15:00,57.0,22.4,30.10,ESE,105,3.3,4.6,26,0.00,SCT,,0.00,729.0,WeatherDisplay:10.37,2013-03-30 19:15:00,
2013-03-30 15:20:00,56.9,22.3,30.10,NNE,29,0.8,3.5,26,0.00,SCT,,0.00,719.0,WeatherDisplay:10.37,2013-03-30 19:20:00,
2013-03-30 15:25:00,57.0,22.4,30.10,WNW,298,3.9,5.8,26,0.00,FEW,,0.00,708.0,WeatherDisplay:10.37,2013-03-30 19:25:00,
2013-03-30 15:30:00,57.0,19.5,30.10,West,274,10.9,16.5,23,0.00,FEW,,0.00,696.0,WeatherDisplay:10.37,2013-03-30 19:30:00,
2013-03-30 15:35:00,57.0,19.5,30.10,NW,305,0.6,3.0,23,0.00,SCT,,0.00,684.0,WeatherDisplay:10.37,2013-03-30 19:35:00,
2013-03-30 15:40:00,57.5,18.9,30.10,West,270,4.0,5.8,22,0.00,SCT,,0.00,670.0,WeatherDisplay:10.37,2013-03-30 19:40:00,
2013-03-30 15:45:00,57.8,21.2,30.10,SW,229,8.4,9.2,24,0.00,FEW,,0.00,661.0,WeatherDisplay:10.37,2013-03-30 19:45:00,
2013-03-30 15:50:00,57.5,20.9,30.10,WSW,242,11.3,11.3,24,0.00,FEW,,0.00,649.0,WeatherDisplay:10.37,2013-03-30 19:50:00,
2013-03-30 15:55:00,57.3,18.7,30.10,WNW,298,2.9,5.8,22,0.00,FEW,,0.00,636.0,WeatherDisplay:10.37,2013-03-30 19:55:00,
2013-03-30 16:00:00,57.8,19.1,30.09,West,275,5.0,10.5,22,0.00,FEW,,0.00,624.0,WeatherDisplay:10.37,2013-03-30 20:00:00,
2013-03-30 16:05:00,57.8,18.1,30.09,SW,217,15.8,22.5,21,0.00,FEW,,0.00,610.0,WeatherDisplay:10.37,2013-03-30 20:05:00,
2013-03-30 16:10:00,57.6,20.0,30.09,WNW,303,8.5,10.4,23,0.00,FEW,,0.00,596.0,WeatherDisplay:10.37,2013-03-30 20:10:00,
2013-03-30 16:15:00,58.0,19.3,30.09,West,268,5.8,10.4,22,0.00,SCT,,0.00,585.0,WeatherDisplay:10.37,2013-03-30 20:15:00,
2013-03-30 16:20:00,58.3,23.5,30.09,WSW,249,0.2,3.5,26,0.00,SCT,,0.00,568.0,WeatherDisplay:10.37,2013-03-30 20:20:00,
2013-03-30 16:25:00,58.6,21.9,30.08,SW,235,8.3,10.5,24,0.00,SCT,,0.00,557.0,WeatherDisplay:10.37,2013-03-30 20:25:00,
2013-03-30 16:30:00,58.3,21.6,30.08,SW,224,10.4,15.0,24,0.00,SCT,,0.00,541.0,WeatherDisplay:10.37,2013-03-30 20:30:00,
2013-03-30 16:35:00,58.1,19.4,30.08,WSW,248,2.4,5.8,22,0.00,SCT,,0.00,526.0,WeatherDisplay:10.37,2013-03-30 20:35:00,
2013-03-30 16:40:00,58.4,21.7,30.08,West,280,6.2,8.1,24,0.00,SCT,,0.00,510.0,WeatherDisplay:10.37,2013-03-30 20:40:00,
2013-03-30 16:45:00,58.6,18.7,30.08,WNW,286,4.1,5.8,21,0.00,SCT,,0.00,494.0,WeatherDisplay:10.37,2013-03-30 20:45:00,
2013-03-30 16:51:00,58.4,18.6,30.08,North,355,1.1,3.5,21,0.00,SCT,,0.00,478.0,WeatherDisplay:10.37,2013-03-30 20:51:00,
2013-03-30 16:56:00,58.3,18.5,30.08,WNW,284,8.1,10.4,21,0.00,SCT,,0.00,464.0,WeatherDisplay:10.37,2013-03-30 20:56:00,
2013-03-30 17:01:00,58.0,19.3,30.08,NW,310,11.3,11.5,22,0.00,SCT,,0.00,448.0,WeatherDisplay:10.37,2013-03-30 21:01:00,
2013-03-30 17:06:00,58.1,18.3,30.08,West,263,3.4,5.8,21,0.00,FEW,,0.00,431.0,WeatherDisplay:10.37,2013-03-30 21:06:00,
2013-03-30 17:11:00,58.3,19.6,30.08,West,263,0.6,4.5,22,0.00,FEW,,0.00,410.0,WeatherDisplay:10.37,2013-03-30 21:11:00,
2013-03-30 17:16:00,58.6,18.7,30.08,WSW,248,0.6,1.5,21,0.00,FEW,,0.00,396.0,WeatherDisplay:10.37,2013-03-30 21:16:00,
2013-03-30 17:21:00,58.7,18.8,30.08,WNW,284,0.3,5.8,21,0.00,FEW,,0.00,378.0,WeatherDisplay:10.37,2013-03-30 21:21:00,
2013-03-30 17:26:00,58.7,17.7,30.07,WNW,285,1.5,3.0,20,0.00,FEW,,0.00,360.0,WeatherDisplay:10.37,2013-03-30 21:26:00,
2013-03-30 17:31:00,58.4,17.4,30.07,NNE,12,1.3,3.5,20,0.00,FEW,,0.00,345.0,WeatherDisplay:10.37,2013-03-30 21:31:00,
2013-03-30 17:36:00,58.6,18.7,30.08,WNW,285,5.3,6.0,21,0.00,FEW,,0.00,325.0,WeatherDisplay:10.37,2013-03-30 21:36:00,
2013-03-30 17:41:00,58.7,18.8,30.07,NW,317,5.8,8.1,21,0.00,FEW,,0.00,313.0,WeatherDisplay:10.37,2013-03-30 21:41:00,
2013-03-30 17:46:00,58.7,19.9,30.07,West,275,4.0,6.0,22,0.00,FEW,,0.00,294.0,WeatherDisplay:10.37,2013-03-30 21:46:00,
2013-03-30 17:51:00,58.6,17.6,30.07,West,271,0.5,3.5,20,0.00,FEW,,0.00,278.0,WeatherDisplay:10.37,2013-03-30 21:51:00,
2013-03-30 17:56:00,58.7,19.9,30.07,West,272,1.6,3.0,22,0.00,FEW,,0.00,262.0,WeatherDisplay:10.37,2013-03-30 21:56:00,
2013-03-30 18:01:00,58.9,17.8,30.07,West,273,0.2,1.5,20,0.00,FEW,,0.00,229.0,WeatherDisplay:10.37,2013-03-30 22:01:00,
2013-03-30 18:06:00,58.9,20.1,30.07,NW,323,3.4,4.5,22,0.00,SCT,,0.00,220.0,WeatherDisplay:10.37,2013-03-30 22:06:00,
2013-03-30 18:11:00,58.4,18.6,30.07,NW,325,0.6,4.6,21,0.00,SCT,,0.00,200.0,WeatherDisplay:10.37,2013-03-30 22:11:00,
2013-03-30 18:16:00,58.4,18.6,30.07,NW,323,0.1,1.2,21,0.00,SCT,,0.00,137.0,WeatherDisplay:10.37,2013-03-30 22:16:00,
2013-03-30 18:21:00,58.4,17.4,30.07,NW,323,0.0,0.0,20,0.00,SCT,,0.00,118.0,WeatherDisplay:10.37,2013-03-30 22:21:00,
2013-03-30 18:27:00,57.8,21.2,30.07,NW,323,0.1,1.5,24,0.00,SCT,,0.00,100.0,WeatherDisplay:10.37,2013-03-30 22:27:00,
2013-03-30 18:32:00,56.7,18.2,30.07,NW,325,0.4,1.5,22,0.00,SCT,,0.00,88.0,WeatherDisplay:10.37,2013-03-30 22:32:00,
2013-03-30 18:37:00,56.3,19.9,30.07,NNW,327,0.1,1.2,24,0.00,SCT,,0.00,77.0,WeatherDisplay:10.37,2013-03-30 22:37:00,
2013-03-30 18:42:00,56.0,19.7,30.07,NNW,327,0.0,0.0,24,0.00,SCT,,0.00,62.0,WeatherDisplay:10.37,2013-03-30 22:42:00,
2013-03-30 18:47:00,55.3,24.4,30.06,NNW,327,0.1,1.2,30,0.00,SCT,,0.00,42.0,WeatherDisplay:10.37,2013-03-30 22:47:00,
2013-03-30 18:52:00,54.7,20.4,30.06,NNW,331,0.2,3.5,26,0.00,SCT,,0.00,35.0,WeatherDisplay:10.37,2013-03-30 22:52:00,
2013-03-30 18:57:00,54.4,21.1,30.06,NNW,331,0.0,0.0,27,0.00,SCT,,0.00,28.0,WeatherDisplay:10.37,2013-03-30 22:57:00,
2013-03-30 19:02:00,53.3,21.0,30.06,NNW,331,0.0,0.0,28,0.00,SCT,,0.00,25.0,WeatherDisplay:10.37,2013-03-30 23:02:00,
2013-03-30 19:07:00,52.6,21.2,30.06,NNW,331,0.0,0.0,29,0.00,SCT,,0.00,21.0,WeatherDisplay:10.37,2013-03-30 23:07:00,
2013-03-30 19:12:00,51.9,20.6,30.06,NNW,331,0.0,0.0,29,0.00,SCT,,0.00,16.0,WeatherDisplay:10.37,2013-03-30 23:12:00,
2013-03-30 19:17:00,51.0,20.6,30.07,NNW,331,0.0,0.0,30,0.00,SCT,,0.00,12.0,WeatherDisplay:10.37,2013-03-30 23:17:00,
2013-03-30 19:22:00,49.9,22.6,30.07,NNW,331,0.1,1.5,34,0.00,SCT,,0.00,7.0,WeatherDisplay:10.37,2013-03-30 23:22:00,
2013-03-30 19:27:00,47.9,23.5,30.07,NNW,331,0.0,0.0,38,0.00,SCT,,0.00,0.0,WeatherDisplay:10.37,2013-03-30 23:27:00,
2013-03-30 19:32:00,47.1,20.8,30.07,NNW,331,0.0,1.2,35,0.00,SCT,,0.00,0.0,WeatherDisplay:10.37,2013-03-30 23:32:00,
2013-03-30 19:37:00,47.0,21.4,30.07,NNW,331,0.0,0.0,36,0.00,SCT,,0.00,0.0,WeatherDisplay:10.37,2013-03-30 23:37:00,
2013-03-30 19:42:00,46.4,23.4,30.08,NNW,331,0.0,0.0,40,0.00,SCT,,0.00,0.0,WeatherDisplay:10.37,2013-03-30 23:42:00,
2013-03-30 19:47:00,46.4,22.1,30.08,NNW,331,0.0,0.0,38,0.00,SCT,,0.00,0.0,WeatherDisplay:10.37,2013-03-30 23:47:00,
2013-03-30 19:52:00,46.5,20.3,30.08,NNW,331,0.0,0.0,35,0.00,SCT,,0.00,0.0,WeatherDisplay:10.37,2013-03-30 23:52:00,
2013-03-30 19:57:00,46.0,23.6,30.08,NNW,331,0.0,0.0,41,0.00,SCT,,0.00,0.0,WeatherDisplay:10.37,2013-03-30 23:57:00,
2013-03-30 20:02:00,45.2,22.9,30.07,NNW,331,0.0,0.0,41,0.00,CLR,,0.00,0.0,WeatherDisplay:10.37,2013-03-31 00:02:00,
2013-03-30 20:07:00,44.5,22.8,30.07,NNW,331,0.0,0.0,42,0.00,CLR,,0.00,0.0,WeatherDisplay:10.37,2013-03-31 00:07:00,
2013-03-30 20:12:00,43.9,22.8,30.08,NNW,331,0.0,0.0,43,0.00,CLR,,0.00,0.0,WeatherDisplay:10.37,2013-03-31 00:12:00,
2013-03-30 20:17:00,43.5,23.0,30.08,NNW,331,0.0,0.0,44,0.00,CLR,,0.00,0.0,WeatherDisplay:10.37,2013-03-31 00:17:00,
2013-03-30 20:22:00,43.6,23.6,30.08,NNW,331,0.0,0.0,45,0.00,CLR,,0.00,0.0,WeatherDisplay:10.37,2013-03-31 00:22:00,
2013-03-30 20:27:00,43.6,23.6,30.08,NNW,331,0.0,0.0,45,0.00,CLR,,0.00,0.0,WeatherDisplay:10.37,2013-03-31 00:27:00,
2013-03-30 20:32:00,43.1,24.2,30.08,NNW,331,0.0,0.0,47,0.00,CLR,,0.00,0.0,WeatherDisplay:10.37,2013-03-31 00:32:00,
2013-03-30 20:37:00,42.2,24.4,30.08,NNW,331,0.0,0.0,49,0.00,CLR,,0.00,0.0,WeatherDisplay:10.37,2013-03-31 00:37:00,
2013-03-30 20:43:00,41.5,24.2,30.08,NNW,331,0.0,0.0,50,0.00,CLR,,0.00,0.0,WeatherDisplay:10.37,2013-03-31 00:43:00,
2013-03-30 20:48:00,41.1,24.3,30.08,NNW,331,0.0,0.0,51,0.00,CLR,,0.00,0.0,WeatherDisplay:10.37,2013-03-31 00:48:00,
2013-03-30 20:53:00,40.5,24.7,30.09,NNW,331,0.0,0.0,53,0.00,CLR,,0.00,0.0,WeatherDisplay:10.37,2013-03-31 00:53:00,
2013-03-30 20:58:00,40.1,24.8,30.09,NNW,331,0.0,0.0,54,0.00,CLR,,0.00,0.0,WeatherDisplay:10.37,2013-03-31 00:58:00,
2013-03-30 21:03:00,39.9,25.0,30.08,NNW,331,0.0,0.0,55,0.00,CLR,,0.00,0.0,WeatherDisplay:10.37,2013-03-31 01:03:00,
2013-03-30 21:08:00,39.8,26.6,30.09,SSE,148,0.0,0.0,59,0.00,CLR,,0.00,0.0,WeatherDisplay:10.37,2013-03-31 01:08:00,
2013-03-30 21:13:00,39.3,26.6,30.09,SSE,148,0.0,0.0,60,0.00,CLR,,0.00,0.0,WeatherDisplay:10.37,2013-03-31 01:13:00,
2013-03-30 21:18:00,39.1,26.0,30.09,SSE,148,0.0,0.0,59,0.00,CLR,,0.00,0.0,WeatherDisplay:10.37,2013-03-31 01:18:00,
2013-03-30 21:23:00,38.6,25.9,30.09,SSE,148,0.0,0.0,60,0.00,CLR,,0.00,0.0,WeatherDisplay:10.37,2013-03-31 01:23:00,
2013-03-30 21:28:00,38.2,25.5,30.08,SSE,148,0.0,0.0,60,0.00,CLR,,0.00,0.0,WeatherDisplay:10.37,2013-03-31 01:28:00,
2013-03-30 21:33:00,37.9,25.6,30.08,SSE,148,0.0,0.0,61,0.00,FEW,,0.00,0.0,WeatherDisplay:10.37,2013-03-31 01:33:00,
2013-03-30 21:38:00,37.6,25.7,30.09,SSE,148,0.0,0.0,62,0.00,FEW,,0.00,0.0,WeatherDisplay:10.37,2013-03-31 01:38:00,
2013-03-30 21:43:00,37.8,26.3,30.08,SSE,148,0.0,0.0,63,0.00,FEW,,0.00,0.0,WeatherDisplay:10.37,2013-03-31 01:43:00,
2013-03-30 21:48:00,37.5,26.0,30.09,SSE,148,0.0,0.0,63,0.00,FEW,,0.00,0.0,WeatherDisplay:10.37,2013-03-31 01:48:00,
2013-03-30 21:53:00,36.9,25.5,30.09,SSE,148,0.0,0.0,63,0.00,FEW,,0.00,0.0,WeatherDisplay:10.37,2013-03-31 01:53:00,
2013-03-30 21:58:00,36.8,25.4,30.09,SSE,148,0.0,0.0,63,0.00,FEW,,0.00,0.0,WeatherDisplay:10.37,2013-03-31 01:58:00,
2013-03-30 22:03:00,36.6,25.9,30.08,SSE,148,0.0,0.0,65,0.00,FEW,,0.00,0.0,WeatherDisplay:10.37,2013-03-31 02:03:00,
2013-03-30 22:08:00,36.5,25.8,30.08,SSE,148,0.0,0.0,65,0.00,FEW,,0.00,0.0,WeatherDisplay:10.37,2013-03-31 02:08:00,
2013-03-30 22:13:00,36.0,25.4,30.08,SSE,148,0.0,0.0,65,0.00,FEW,,0.00,0.0,WeatherDisplay:10.37,2013-03-31 02:13:00,
2013-03-30 22:18:00,35.8,25.2,30.08,SSE,148,0.0,0.0,65,0.00,FEW,,0.00,0.0,WeatherDisplay:10.37,2013-03-31 02:18:00,
2013-03-30 22:24:00,35.6,25.4,30.08,SSE,148,0.0,0.0,66,0.00,FEW,,0.00,0.0,WeatherDisplay:10.37,2013-03-31 02:24:00,
2013-03-30 22:29:00,35.5,25.3,30.08,SSE,148,0.0,0.0,66,0.00,FEW,,0.00,0.0,WeatherDisplay:10.37,2013-03-31 02:29:00,
2013-03-30 22:34:00,35.3,25.4,30.08,SSE,148,0.0,0.0,67,0.00,FEW,,0.00,0.0,WeatherDisplay:10.37,2013-03-31 02:34:00,
2013-03-30 22:39:00,35.3,25.8,30.08,SSE,148,0.0,0.0,68,0.00,FEW,,0.00,0.0,WeatherDisplay:10.37,2013-03-31 02:39:00,
2013-03-30 22:44:00,35.2,25.7,30.08,SSE,148,0.0,0.0,68,0.00,FEW,,0.00,0.0,WeatherDisplay:10.37,2013-03-31 02:44:00,
2013-03-30 22:49:00,34.9,25.4,30.08,SSE,148,0.0,0.0,68,0.00,FEW,,0.00,0.0,WeatherDisplay:10.37,2013-03-31 02:49:00,
2013-03-30 22:54:00,34.6,25.1,30.08,SSE,148,0.0,0.0,68,0.00,FEW,,0.00,0.0,WeatherDisplay:10.37,2013-03-31 02:54:00,
2013-03-30 22:59:00,34.3,24.8,30.08,SSE,148,0.0,0.0,68,0.00,FEW,,0.00,0.0,WeatherDisplay:10.37,2013-03-31 02:59:00,
2013-03-30 23:04:00,34.1,25.0,30.07,SSE,148,0.0,0.0,69,0.00,FEW,,0.00,0.0,WeatherDisplay:10.37,2013-03-31 03:04:00,
2013-03-30 23:09:00,34.0,24.9,30.07,SSE,148,0.0,0.0,69,0.00,FEW,,0.00,0.0,WeatherDisplay:10.37,2013-03-31 03:09:00,
2013-03-30 23:14:00,34.0,25.2,30.07,SSE,148,0.0,0.0,70,0.00,FEW,,0.00,0.0,WeatherDisplay:10.37,2013-03-31 03:14:00,
2013-03-30 23:19:00,33.8,25.0,30.07,SSE,148,0.0,0.0,70,0.00,FEW,,0.00,0.0,WeatherDisplay:10.37,2013-03-31 03:19:00,
2013-03-30 23:24:00,34.0,25.6,30.07,SSE,148,0.0,0.0,71,0.00,FEW,,0.00,0.0,WeatherDisplay:10.37,2013-03-31 03:24:00,
2013-03-30 23:29:00,33.7,25.3,30.07,SSE,148,0.0,0.0,71,0.00,FEW,,0.00,0.0,WeatherDisplay:10.37,2013-03-31 03:29:00,
2013-03-30 23:34:00,33.7,25.3,30.06,SSE,148,0.0,0.0,71,0.00,FEW,,0.00,0.0,WeatherDisplay:10.37,2013-03-31 03:34:00,
2013-03-30 23:39:00,33.5,25.1,30.06,SSE,148,0.0,0.0,71,0.00,FEW,,0.00,0.0,WeatherDisplay:10.37,2013-03-31 03:39:00,
2013-03-30 23:44:00,33.2,24.8,30.06,SSE,148,0.0,0.0,71,0.00,FEW,,0.00,0.0,WeatherDisplay:10.37,2013-03-31 03:44:00,
2013-03-30 23:49:00,33.1,24.7,30.06,SSE,148,0.0,0.0,71,0.00,FEW,,0.00,0.0,WeatherDisplay:10.37,2013-03-31 03:49:00,
2013-03-30 23:54:00,32.9,24.9,30.06,SSE,148,0.0,0.0,72,0.00,FEW,,0.00,0.0,WeatherDisplay:10.37,2013-03-31 03:54:00,
2013-03-30 23:59:00,32.8,24.8,30.06,SSE,148,0.0,0.0,72,0.00,FEW,,0.00,0.0,WeatherDisplay:10.37,2013-03-31 03:59:00,